Greenock, United Kingdom
Current Conditions -  °F | °C
As of 6:50 AM on Tuesday 21 Oct 2014 (Local Time) from EGPF Reporting Station
Moderate Rain Moderate Rain  
Wind Chill: 40°   Ceiling: 2300
Heat Index: 46°   Visibility: 6mi
Dew Point: 41°   Wind: 15mph
Humidity: 81%   Direction: 270°W
Pressure: 29.21"   Gusts: 26mph
Location:  55.95°N, 4.76°W
Report Text: EGPF 210550Z AUTO 27013G23KT 9999 RA BKN023/// //////TCU 08/05 Q0989
Loading
Personal Weather Stations






























Interactive Weather Map New forecast layout! Learn more

10-Day Weather Forecast

Advertisements
Track Severe Weather on mobile